Terminal Aerodrome Forecast
Issued by NWS

Home | Current Version | Previous Version | Text Only | Print | Product List | Glossary On
Versions: 1 2 3 4 5 6 7 8 9 10 11 12 13 14 15 16 17 18 19 20 21 22 23 24 25 26 27 28 29 30 31 32 33 34 35
000
FTAK31 PANC 061320 AAA
TAFAIL
TAF AMD
PAIL 061320Z 0613/0712 10018G28KT P6SM VCSH FEW090 BKN110
      WS020/12050KT
     FM061600 10018G28KT P6SM -SHRA SCT025 OVC040 WS020/12045KT
     FM070400 13009KT P6SM -SHRA BKN025 OVC040=

USA.gov is the U.S. government's official web portal to all federal, state and local government web resources and services.